Time,TemperatureF,DewpointF,PressureIn,WindDirection,WindDirectionDegrees,WindSpeedMPH,WindSpeedGustMPH,Humidity,HourlyPrecipIn,Conditions,Clouds,dailyrainin,SoftwareType,DateUTC
2013-03-31 00:03:00,37.1,31.0,30.04,East,80,0.0,-999.0,80,-99.99,,,0.00,weatherlink.com 1.10,2013-03-31 04:03:00,
2013-03-31 00:18:00,37.0,31.0,30.05,East,80,0.0,-999.0,80,-99.99,,,0.00,weatherlink.com 1.10,2013-03-31 04:18:00,
2013-03-31 00:33:00,37.2,31.0,30.05,ENE,78,0.0,-999.0,78,-99.99,,,0.00,weatherlink.com 1.10,2013-03-31 04:33:00,
2013-03-31 00:48:00,36.9,31.0,30.06,ENE,78,0.0,-999.0,78,-99.99,,,0.00,weatherlink.com 1.10,2013-03-31 04:48:00,
2013-03-31 01:03:00,36.5,31.0,30.06,ENE,78,0.0,-999.0,79,-99.99,,,0.00,weatherlink.com 1.10,2013-03-31 05:03:00,
2013-03-31 01:18:00,35.9,30.0,30.06,ENE,78,0.0,-999.0,79,-99.99,,,0.00,weatherlink.com 1.10,2013-03-31 05:18:00,
2013-03-31 01:33:00,35.9,30.0,30.06,ENE,78,0.0,-999.0,79,-99.99,,,0.00,weatherlink.com 1.10,2013-03-31 05:33:00,
2013-03-31 01:48:00,35.7,30.0,30.06,ENE,78,0.0,-999.0,79,-99.99,,,0.00,weatherlink.com 1.10,2013-03-31 05:48:00,
2013-03-31 02:03:00,35.4,29.0,30.05,ENE,78,0.0,-999.0,78,-99.99,,,0.00,weatherlink.com 1.10,2013-03-31 06:03:00,
2013-03-31 02:18:00,35.5,28.0,30.05,ENE,78,0.0,-999.0,74,-99.99,,,0.00,weatherlink.com 1.10,2013-03-31 06:18:00,
2013-03-31 02:33:00,35.6,27.0,30.05,ENE,78,1.0,-999.0,71,-99.99,,,0.00,weatherlink.com 1.10,2013-03-31 06:33:00,
2013-03-31 02:48:00,35.5,27.0,30.05,ENE,78,0.0,-999.0,71,-99.99,,,0.00,weatherlink.com 1.10,2013-03-31 06:48:00,
2013-03-31 03:03:00,34.9,27.0,30.05,ENE,78,0.0,-999.0,72,-99.99,,,0.00,weatherlink.com 1.10,2013-03-31 07:03:00,
2013-03-31 03:18:00,34.6,27.0,30.05,ENE,78,1.0,-999.0,74,-99.99,,,0.00,weatherlink.com 1.10,2013-03-31 07:18:00,
2013-03-31 03:33:00,34.1,27.0,30.05,ENE,78,1.0,-999.0,76,-99.99,,,0.00,weatherlink.com 1.10,2013-03-31 07:33:00,
2013-03-31 03:48:00,33.8,27.0,30.05,ENE,78,0.0,-999.0,77,-99.99,,,0.00,weatherlink.com 1.10,2013-03-31 07:48:00,
2013-03-31 04:03:00,33.8,27.0,30.05,ENE,78,0.0,-999.0,77,-99.99,,,0.00,weatherlink.com 1.10,2013-03-31 08:03:00,
2013-03-31 04:18:00,33.5,27.0,30.05,ENE,78,0.0,-999.0,76,-99.99,,,0.00,weatherlink.com 1.10,2013-03-31 08:18:00,
2013-03-31 04:33:00,33.2,26.0,30.05,ENE,78,0.0,-999.0,76,-99.99,,,0.00,weatherlink.com 1.10,2013-03-31 08:33:00,
2013-03-31 04:48:00,33.1,25.0,30.05,ENE,78,0.0,-999.0,73,-99.99,,,0.00,weatherlink.com 1.10,2013-03-31 08:48:00,
2013-03-31 05:03:00,33.2,25.0,30.05,ENE,78,0.0,-999.0,73,-99.99,,,0.00,weatherlink.com 1.10,2013-03-31 09:03:00,
2013-03-31 05:18:00,32.6,26.0,30.06,ENE,78,0.0,-999.0,75,-99.99,,,0.00,weatherlink.com 1.10,2013-03-31 09:18:00,
2013-03-31 05:33:00,31.8,25.0,30.06,ENE,78,0.0,-999.0,76,-99.99,,,0.00,weatherlink.com 1.10,2013-03-31 09:33:00,
2013-03-31 05:48:00,31.3,25.0,30.06,ENE,78,0.0,-999.0,77,-99.99,,,0.00,weatherlink.com 1.10,2013-03-31 09:48:00,
2013-03-31 06:03:00,31.1,25.0,30.06,ENE,78,0.0,-999.0,79,-99.99,,,0.00,weatherlink.com 1.10,2013-03-31 10:03:00,
2013-03-31 06:18:00,31.0,25.0,30.05,ENE,78,0.0,-999.0,79,-99.99,,,0.00,weatherlink.com 1.10,2013-03-31 10:18:00,
2013-03-31 06:33:00,31.0,25.0,30.05,ENE,78,0.0,-999.0,77,-99.99,,,0.00,weatherlink.com 1.10,2013-03-31 10:33:00,
2013-03-31 06:48:00,31.0,25.0,30.06,ENE,78,0.0,-999.0,79,-99.99,,,0.00,weatherlink.com 1.10,2013-03-31 10:48:00,
2013-03-31 07:03:00,31.1,25.0,30.06,ENE,78,0.0,-999.0,79,-99.99,,,0.00,weatherlink.com 1.10,2013-03-31 11:03:00,
2013-03-31 07:18:00,31.9,26.0,30.07,ENE,78,0.0,-999.0,79,-99.99,,,0.00,weatherlink.com 1.10,2013-03-31 11:18:00,
2013-03-31 07:33:00,33.4,27.0,30.07,ENE,78,0.0,-999.0,76,-99.99,,,0.00,weatherlink.com 1.10,2013-03-31 11:33:00,
2013-03-31 07:48:00,35.2,27.0,30.07,ENE,78,0.0,-999.0,72,-99.99,,,0.00,weatherlink.com 1.10,2013-03-31 11:48:00,
2013-03-31 08:03:00,37.2,26.0,30.07,ENE,78,0.0,-999.0,65,-99.99,,,0.00,weatherlink.com 1.10,2013-03-31 12:03:00,
2013-03-31 08:18:00,39.2,26.0,30.06,ENE,78,0.0,-999.0,59,-99.99,,,0.00,weatherlink.com 1.10,2013-03-31 12:18:00,
2013-03-31 08:33:00,40.9,26.0,30.06,ENE,78,0.0,-999.0,55,-99.99,,,0.00,weatherlink.com 1.10,2013-03-31 12:33:00,
2013-03-31 08:48:00,42.9,26.0,30.05,ENE,78,0.0,-999.0,51,-99.99,,,0.00,weatherlink.com 1.10,2013-03-31 12:48:00,
2013-03-31 09:03:00,45.2,25.0,30.05,East,80,1.0,-999.0,46,-99.99,,,0.00,weatherlink.com 1.10,2013-03-31 13:03:00,
2013-03-31 09:18:00,46.7,26.0,30.05,East,96,0.0,-999.0,45,-99.99,,,0.00,weatherlink.com 1.10,2013-03-31 13:18:00,
2013-03-31 09:33:00,48.3,26.0,30.04,ESE,111,0.0,-999.0,42,-99.99,,,0.00,weatherlink.com 1.10,2013-03-31 13:33:00,
2013-03-31 09:48:00,49.8,27.0,30.05,ESE,111,1.0,-999.0,42,-99.99,,,0.00,weatherlink.com 1.10,2013-03-31 13:48:00,
2013-03-31 10:03:00,51.1,27.0,30.04,SSW,194,0.0,-999.0,39,-99.99,,,0.00,weatherlink.com 1.10,2013-03-31 14:03:00,
2013-03-31 10:18:00,52.4,27.0,30.04,East,82,0.0,-999.0,37,-99.99,,,0.00,weatherlink.com 1.10,2013-03-31 14:18:00,
2013-03-31 10:33:00,53.5,26.0,30.04,WSW,246,0.0,-999.0,34,-99.99,,,0.00,weatherlink.com 1.10,2013-03-31 14:33:00,
2013-03-31 10:48:00,54.9,27.0,30.04,SE,126,0.0,-999.0,34,-99.99,,,0.00,weatherlink.com 1.10,2013-03-31 14:48:00,
2013-03-31 11:03:00,55.6,28.0,30.03,ESE,123,1.0,-999.0,35,-99.99,,,0.00,weatherlink.com 1.10,2013-03-31 15:03:00,
2013-03-31 11:18:00,55.8,30.0,30.03,ESE,111,2.0,-999.0,38,-99.99,,,0.00,weatherlink.com 1.10,2013-03-31 15:18:00,
2013-03-31 11:33:00,56.1,29.0,30.03,SE,126,0.0,-999.0,36,-99.99,,,0.00,weatherlink.com 1.10,2013-03-31 15:33:00,
2013-03-31 11:48:00,55.7,32.0,30.02,ESE,122,2.0,-999.0,40,-99.99,,,0.00,weatherlink.com 1.10,2013-03-31 15:48:00,
2013-03-31 12:03:00,55.8,30.0,30.02,ESE,113,1.0,-999.0,38,-99.99,,,0.00,weatherlink.com 1.10,2013-03-31 16:03:00,
2013-03-31 12:18:00,55.9,32.0,30.01,ESE,109,1.0,-999.0,41,-99.99,,,0.00,weatherlink.com 1.10,2013-03-31 16:18:00,
2013-03-31 12:33:00,56.4,32.0,30.00,ESE,115,5.0,-999.0,40,-99.99,,,0.00,weatherlink.com 1.10,2013-03-31 16:33:00,
2013-03-31 12:48:00,55.7,33.0,29.99,ESE,123,5.0,-999.0,43,-99.99,,,0.00,weatherlink.com 1.10,2013-03-31 16:48:00,
2013-03-31 13:03:00,54.9,34.0,29.99,ESE,114,0.0,-999.0,46,-99.99,,,0.00,weatherlink.com 1.10,2013-03-31 17:03:00,
2013-03-31 13:18:00,55.4,34.0,29.98,ESE,118,6.0,-999.0,45,-99.99,,,0.00,weatherlink.com 1.10,2013-03-31 17:18:00,
2013-03-31 13:33:00,55.2,36.0,29.97,ESE,114,2.0,-999.0,49,-99.99,,,0.00,weatherlink.com 1.10,2013-03-31 17:33:00,
2013-03-31 13:48:00,54.7,33.0,29.96,ENE,62,4.0,-999.0,44,-99.99,,,0.00,weatherlink.com 1.10,2013-03-31 17:48:00,
2013-03-31 14:03:00,56.0,34.0,29.95,ESE,117,0.0,-999.0,44,-99.99,,,0.00,weatherlink.com 1.10,2013-03-31 18:03:00,
2013-03-31 14:18:00,58.1,30.0,29.94,South,184,1.0,-999.0,35,-99.99,,,0.00,weatherlink.com 1.10,2013-03-31 18:18:00,
2013-03-31 14:33:00,60.0,27.0,29.93,West,269,0.0,-999.0,29,-99.99,,,0.00,weatherlink.com 1.10,2013-03-31 18:33:00,
2013-03-31 14:48:00,60.5,27.0,29.93,SE,142,2.0,-999.0,28,-99.99,,,0.00,weatherlink.com 1.10,2013-03-31 18:48:00,
2013-03-31 15:03:00,60.6,28.0,29.92,SW,217,1.0,-999.0,29,-99.99,,,0.00,weatherlink.com 1.10,2013-03-31 19:03:00,
2013-03-31 15:18:00,60.3,29.0,29.92,South,179,0.0,-999.0,31,-99.99,,,0.00,weatherlink.com 1.10,2013-03-31 19:18:00,
2013-03-31 15:33:00,59.9,27.0,29.91,SW,217,4.0,-999.0,29,-99.99,,,0.00,weatherlink.com 1.10,2013-03-31 19:33:00,
2013-03-31 15:48:00,59.7,27.0,29.91,NW,306,3.0,-999.0,29,-99.99,,,0.00,weatherlink.com 1.10,2013-03-31 19:48:00,
2013-03-31 16:03:00,59.0,26.0,29.91,SE,146,0.0,-999.0,28,-99.99,,,0.00,weatherlink.com 1.10,2013-03-31 20:03:00,
2013-03-31 16:18:00,58.4,25.0,29.91,SSW,200,1.0,-999.0,28,-99.99,,,0.00,weatherlink.com 1.10,2013-03-31 20:18:00,
2013-03-31 16:33:00,58.2,27.0,29.91,SE,144,0.0,-999.0,30,-99.99,,,0.00,weatherlink.com 1.10,2013-03-31 20:33:00,
2013-03-31 16:48:00,57.6,26.0,29.90,SSE,167,4.0,-999.0,30,-99.99,,,0.00,weatherlink.com 1.10,2013-03-31 20:48:00,
2013-03-31 17:03:00,57.3,27.0,29.90,South,183,2.0,-999.0,32,-99.99,,,0.00,weatherlink.com 1.10,2013-03-31 21:03:00,
2013-03-31 17:18:00,57.4,27.0,29.90,SSE,157,5.0,-999.0,31,-99.99,,,0.00,weatherlink.com 1.10,2013-03-31 21:18:00,
2013-03-31 17:33:00,56.7,27.0,29.90,SSE,158,6.0,-999.0,32,-99.99,,,0.00,weatherlink.com 1.10,2013-03-31 21:33:00,
2013-03-31 17:48:00,55.7,30.0,29.91,South,173,2.0,-999.0,38,-99.99,,,0.00,weatherlink.com 1.10,2013-03-31 21:48:00,
2013-03-31 18:03:00,54.8,33.0,29.90,SSW,194,0.0,-999.0,44,-99.99,,,0.00,weatherlink.com 1.10,2013-03-31 22:03:00,
2013-03-31 18:18:00,54.1,34.0,29.90,SSE,157,6.0,-999.0,47,-99.99,,,0.00,weatherlink.com 1.10,2013-03-31 22:18:00,
2013-03-31 18:33:00,53.6,35.0,29.90,SW,217,0.0,-999.0,49,-99.99,,,0.00,weatherlink.com 1.10,2013-03-31 22:33:00,
2013-03-31 18:48:00,53.2,35.0,29.90,WSW,249,6.0,-999.0,50,-99.99,,,0.00,weatherlink.com 1.10,2013-03-31 22:48:00,
2013-03-31 19:03:00,52.8,35.0,29.90,West,277,0.0,-999.0,51,-99.99,,,0.00,weatherlink.com 1.10,2013-03-31 23:03:00,
2013-03-31 19:18:00,52.4,36.0,29.89,SSW,201,4.0,-999.0,54,-99.99,,,0.00,weatherlink.com 1.10,2013-03-31 23:18:00,
2013-03-31 19:33:00,52.2,36.0,29.89,South,185,0.0,-999.0,55,-99.99,,,0.00,weatherlink.com 1.10,2013-03-31 23:33:00,
2013-03-31 19:48:00,52.1,36.0,29.89,SSE,165,5.0,-999.0,55,-99.99,,,0.00,weatherlink.com 1.10,2013-03-31 23:48:00,
2013-03-31 20:03:00,51.9,38.0,29.89,South,189,1.0,-999.0,59,-99.99,,,0.00,weatherlink.com 1.10,2013-04-01 00:03:00,
2013-03-31 20:18:00,51.4,39.0,29.88,SE,128,0.0,-999.0,63,-99.99,,,0.00,weatherlink.com 1.10,2013-04-01 00:18:00,
2013-03-31 20:33:00,50.9,39.0,29.87,SE,146,0.0,-999.0,64,-99.99,,,0.00,weatherlink.com 1.10,2013-04-01 00:33:00,
2013-03-31 20:48:00,50.7,39.0,29.86,SE,138,0.0,-999.0,64,-99.99,,,0.00,weatherlink.com 1.10,2013-04-01 00:48:00,
2013-03-31 21:03:00,50.4,38.0,29.85,ESE,104,0.0,-999.0,63,-99.99,,,0.00,weatherlink.com 1.10,2013-04-01 01:03:00,
2013-03-31 21:18:00,50.1,38.0,29.84,SE,134,2.0,-999.0,64,-99.99,,,0.00,weatherlink.com 1.10,2013-04-01 01:18:00,
2013-03-31 21:33:00,49.7,38.0,29.84,SE,140,0.0,-999.0,64,-99.99,,,0.00,weatherlink.com 1.10,2013-04-01 01:33:00,
2013-03-31 21:48:00,49.4,37.0,29.82,SE,145,1.0,-999.0,63,-99.99,,,0.00,weatherlink.com 1.10,2013-04-01 01:48:00,
2013-03-31 22:18:00,47.7,39.0,29.79,ESE,108,0.0,-999.0,72,-99.99,,,0.00,weatherlink.com 1.10,2013-04-01 02:18:00,
2013-03-31 22:33:00,46.7,39.0,29.78,ESE,115,0.0,-999.0,75,-99.99,,,0.00,weatherlink.com 1.10,2013-04-01 02:33:00,
2013-03-31 22:48:00,46.3,39.0,29.78,ESE,114,0.0,-999.0,77,-99.99,,,0.00,weatherlink.com 1.10,2013-04-01 02:48:00,
2013-03-31 23:03:00,46.1,40.0,29.76,ESE,121,0.0,-999.0,79,-99.99,,,0.00,weatherlink.com 1.10,2013-04-01 03:03:00,
2013-03-31 23:18:00,45.6,40.0,29.73,SE,132,2.0,-999.0,82,-99.99,,,0.00,weatherlink.com 1.10,2013-04-01 03:18:00,
2013-03-31 23:33:00,45.2,40.0,29.72,ESE,111,1.0,-999.0,83,-99.99,,,0.00,weatherlink.com 1.10,2013-04-01 03:33:00,
2013-03-31 23:48:00,45.1,41.0,29.71,SSE,159,0.0,-999.0,84,-99.99,,,0.01,weatherlink.com 1.10,2013-04-01 03:48:00,